createdAt,value
2017-09-23T00:05:00.272Z,9.37
2017-09-23T00:10:02.012Z,9.37
2017-09-23T00:15:03.733Z,9.60
2017-09-23T00:20:05.464Z,9.07
2017-09-23T00:25:07.191Z,8.90
2017-09-23T00:30:08.891Z,8.47
2017-09-23T00:35:10.653Z,8.40
2017-09-23T00:40:12.391Z,8.57
2017-09-23T00:45:14.104Z,9.10
2017-09-23T00:50:15.875Z,9.70
2017-09-23T00:55:17.603Z,9.47
2017-09-23T01:00:19.355Z,9.43
2017-09-23T01:05:21.088Z,10.00
2017-09-23T01:10:22.869Z,9.27
2017-09-23T01:15:24.628Z,10.37
2017-09-23T01:20:26.395Z,10.53
2017-09-23T01:25:28.211Z,10.63
2017-09-23T01:30:29.987Z,10.47
2017-09-23T01:35:31.701Z,9.20
2017-09-23T01:40:34.165Z,10.00
2017-09-23T01:45:35.934Z,11.20
2017-09-23T01:50:37.642Z,9.80
2017-09-23T01:55:39.410Z,10.90
2017-09-23T02:00:41.877Z,10.03
2017-09-23T02:05:43.580Z,10.37
2017-09-23T02:10:46.032Z,10.23
2017-09-23T02:15:47.740Z,10.20
2017-09-23T02:20:49.480Z,11.07
2017-09-23T02:25:51.191Z,10.87
2017-09-23T02:30:53.662Z,11.40
2017-09-23T02:35:55.420Z,10.07
2017-09-23T02:41:12.138Z,11.43
2017-09-23T02:46:31.841Z,10.03
2017-09-23T02:51:51.233Z,9.80
2017-09-23T02:57:10.771Z,10.00
2017-09-23T03:02:29.908Z,10.23
2017-09-23T03:07:49.499Z,11.20
2017-09-23T03:13:08.859Z,9.73
2017-09-23T03:18:19.087Z,11.13
2017-09-23T03:23:21.543Z,10.10
2017-09-23T03:28:23.249Z,10.20
2017-09-23T03:33:25.740Z,9.13
2017-09-23T03:38:28.184Z,9.73
2017-09-23T03:43:29.931Z,9.60
2017-09-23T03:48:31.671Z,10.53
2017-09-23T03:53:33.371Z,9.93
2017-09-23T03:58:35.080Z,9.47
2017-09-23T04:03:36.790Z,9.97
2017-09-23T04:08:38.504Z,9.63
2017-09-23T04:13:40.213Z,10.17
2017-09-23T04:18:41.936Z,9.03
2017-09-23T04:23:43.720Z,9.30
2017-09-23T04:28:45.424Z,9.80
2017-09-23T04:33:47.136Z,9.80
2017-09-23T04:38:48.861Z,10.57
2017-09-23T04:43:50.581Z,10.00
2017-09-23T04:48:52.305Z,9.33
2017-09-23T04:53:54.040Z,9.30
2017-09-23T04:58:56.492Z,9.27
2017-09-23T05:03:58.206Z,9.90
2017-09-23T05:09:00.684Z,10.00
2017-09-23T05:14:03.148Z,10.60
2017-09-23T05:19:04.855Z,9.13
2017-09-23T05:24:06.567Z,10.40
2017-09-23T05:29:08.286Z,10.57
2017-09-23T05:34:10.003Z,10.40
2017-09-23T05:39:11.708Z,11.20
2017-09-23T05:44:13.419Z,11.40
2017-09-23T05:49:15.140Z,10.17
2017-09-23T05:54:16.915Z,11.60
2017-09-23T05:59:18.651Z,11.93
2017-09-23T06:04:21.176Z,9.83
2017-09-23T06:09:23.068Z,13.07
2017-09-23T06:14:24.808Z,10.50
2017-09-23T06:19:26.696Z,11.30
2017-09-23T06:24:28.572Z,10.20
2017-09-23T06:29:30.481Z,10.00
2017-09-23T06:34:32.195Z,9.70
2017-09-23T06:39:35.073Z,8.97
2017-09-23T06:44:36.788Z,9.60
2017-09-23T06:49:38.661Z,10.40
2017-09-23T06:54:40.572Z,9.83
2017-09-23T06:59:42.323Z,9.60
2017-09-23T07:04:44.227Z,9.70
2017-09-23T07:09:46.093Z,10.00
2017-09-23T07:14:47.952Z,10.93
2017-09-23T07:21:14.272Z,12.37
2017-09-23T07:26:17.269Z,10.37
2017-09-23T07:31:20.511Z,11.10
2017-09-23T07:36:22.895Z,11.20
2017-09-23T07:41:24.801Z,11.30
2017-09-23T07:46:27.008Z,10.80
2017-09-23T07:51:30.263Z,10.30
2017-09-23T07:56:32.841Z,11.70
2017-09-23T08:01:34.718Z,13.00
2017-09-23T08:06:36.672Z,14.67
2017-09-23T08:11:38.583Z,14.63
2017-09-23T08:16:40.453Z,15.63
2017-09-23T08:21:43.072Z,14.87
2017-09-23T08:26:46.397Z,16.87
2017-09-23T08:31:48.300Z,17.70
2017-09-23T08:36:50.216Z,17.70
2017-09-23T08:41:52.146Z,17.93
2017-09-23T08:46:53.958Z,19.20
2017-09-23T08:51:55.818Z,20.00
2017-09-23T08:56:57.721Z,19.10
2017-09-23T09:01:59.640Z,18.10
2017-09-23T09:07:01.621Z,16.70
2017-09-23T09:12:04.580Z,17.00
2017-09-23T09:17:06.676Z,15.30
2017-09-23T09:22:08.659Z,13.80
2017-09-23T09:27:10.652Z,13.10
2017-09-23T09:32:12.693Z,14.13
2017-09-23T09:37:14.598Z,14.90
2017-09-23T09:42:16.648Z,14.37
2017-09-23T09:47:19.572Z,14.50
2017-09-23T09:52:22.341Z,14.50
2017-09-23T09:57:24.535Z,15.67
2017-09-23T10:02:26.392Z,16.57
2017-09-23T10:07:28.252Z,17.50
2017-09-23T10:12:42.348Z,17.53
2017-09-23T10:17:44.146Z,16.10
2017-09-23T10:22:46.023Z,16.30
2017-09-23T10:27:48.543Z,15.43
2017-09-23T10:32:50.394Z,16.50
2017-09-23T10:37:52.355Z,16.30
2017-09-23T10:42:57.466Z,16.00
2017-09-23T10:48:01.669Z,17.00
2017-09-23T10:53:04.694Z,14.77
2017-09-23T10:58:07.870Z,16.07
2017-09-23T11:03:13.370Z,16.63
2017-09-23T11:08:15.668Z,15.40
2017-09-23T11:13:17.547Z,14.73
2017-09-23T11:18:19.492Z,13.73
2017-09-23T11:23:23.301Z,14.80
2017-09-23T11:28:27.491Z,14.40
2017-09-23T11:33:29.647Z,14.90
2017-09-23T11:38:49.064Z,14.17
2017-09-23T11:44:12.435Z,13.20
2017-09-23T12:00:53.915Z,15.00
2017-09-23T12:06:25.075Z,14.00
2017-09-23T12:17:24.364Z,11.57
2017-09-23T12:22:51.810Z,12.90
2017-09-23T12:28:19.643Z,11.63
2017-09-23T12:33:25.608Z,10.83
2017-09-23T12:38:27.597Z,11.80
2017-09-23T12:43:34.801Z,12.80
2017-09-23T12:48:36.901Z,10.63
2017-09-23T12:53:38.730Z,9.70
2017-09-23T12:58:40.643Z,11.40
2017-09-23T13:03:43.503Z,11.87
2017-09-23T13:08:45.380Z,10.87
2017-09-23T13:13:47.252Z,9.73
2017-09-23T13:18:49.120Z,11.40
2017-09-23T13:23:51.012Z,11.53
2017-09-23T13:28:52.881Z,11.33
2017-09-23T13:33:54.767Z,9.70
2017-09-23T13:38:56.596Z,9.83
2017-09-23T13:43:58.525Z,8.80
2017-09-23T13:49:00.388Z,8.80
2017-09-23T13:54:02.281Z,9.47
2017-09-23T13:59:04.093Z,9.33
2017-09-23T14:04:06.023Z,9.63
2017-09-23T14:09:07.904Z,9.37
2017-09-23T14:14:09.805Z,9.03
2017-09-23T14:19:11.656Z,8.50
2017-09-23T14:24:13.547Z,8.47
2017-09-23T14:29:15.380Z,8.43
2017-09-23T14:34:18.914Z,8.67
2017-09-23T14:39:20.781Z,10.13
2017-09-23T14:44:22.537Z,10.03
2017-09-23T14:49:24.328Z,9.30
2017-09-23T14:54:26.832Z,10.30
2017-09-23T14:59:28.769Z,9.40
2017-09-23T15:04:30.577Z,9.17
2017-09-23T15:09:34.105Z,10.47
2017-09-23T15:14:35.960Z,9.53
2017-09-23T15:19:38.512Z,11.27
2017-09-23T15:24:40.376Z,9.00
2017-09-23T15:29:42.208Z,9.50
2017-09-23T15:34:44.754Z,9.30
2017-09-23T15:39:46.532Z,9.93
2017-09-23T15:44:48.373Z,9.20
2017-09-23T15:49:50.241Z,8.73
2017-09-23T15:54:52.740Z,8.73
2017-09-23T15:59:54.647Z,8.00
2017-09-23T16:04:56.531Z,8.47
2017-09-23T16:09:58.401Z,8.20
2017-09-23T16:15:00.238Z,7.90
2017-09-23T16:20:02.760Z,9.30
2017-09-23T16:25:04.616Z,8.87
2017-09-23T16:30:06.500Z,8.70
2017-09-23T16:35:08.356Z,9.33
2017-09-23T16:40:10.236Z,10.10
2017-09-23T16:45:12.046Z,9.80
2017-09-23T16:50:13.905Z,9.73
2017-09-23T16:55:15.781Z,8.93
2017-09-23T17:00:17.601Z,9.13
2017-09-23T17:05:19.438Z,8.70
2017-09-23T17:10:21.312Z,9.50
2017-09-23T17:15:23.285Z,14.30
2017-09-23T17:20:25.873Z,12.37
2017-09-23T17:25:30.406Z,14.57
2017-09-23T17:30:32.893Z,10.77
2017-09-23T17:35:34.792Z,10.43
2017-09-23T17:40:37.265Z,10.90
2017-09-23T17:45:52.378Z,12.40
2017-09-23T17:51:16.448Z,12.90
2017-09-23T17:56:40.113Z,23.23
2017-09-23T18:02:06.602Z,33.70
2017-09-23T18:07:31.139Z,13.53
2017-09-23T18:18:25.313Z,12.50
2017-09-23T18:23:47.869Z,13.43
2017-09-23T18:28:55.256Z,14.10
2017-09-23T18:33:57.210Z,15.50
2017-09-23T18:38:59.088Z,16.27
2017-09-23T18:44:01.146Z,15.40
2017-09-23T18:49:03.674Z,14.10
2017-09-23T18:54:05.415Z,14.00
2017-09-23T18:59:07.304Z,13.20
2017-09-23T19:04:09.197Z,12.87
2017-09-23T19:09:12.231Z,15.43
2017-09-23T19:14:14.166Z,22.70
2017-09-23T19:19:16.651Z,23.33
2017-09-23T19:24:20.925Z,16.37
2017-09-23T19:29:22.870Z,17.40
2017-09-23T19:34:25.867Z,20.20
2017-09-23T19:39:27.653Z,17.07
2017-09-23T19:44:29.606Z,15.77
2017-09-23T19:49:31.507Z,20.60
2017-09-23T19:54:33.993Z,15.40
2017-09-23T19:59:36.487Z,16.23
2017-09-23T20:04:38.978Z,18.27
2017-09-23T20:09:40.880Z,17.97
2017-09-23T20:14:42.732Z,18.13
2017-09-23T20:19:45.228Z,18.20
2017-09-23T20:24:47.437Z,19.20
2017-09-23T20:29:49.276Z,19.27
2017-09-23T20:34:51.126Z,17.30
2017-09-23T20:39:52.950Z,17.90
2017-09-23T20:44:55.456Z,19.00
2017-09-23T20:49:57.304Z,24.87
2017-09-23T20:54:59.099Z,17.50
2017-09-23T21:00:01.108Z,18.03
2017-09-23T21:05:02.889Z,18.27
2017-09-23T21:10:04.720Z,18.30
2017-09-23T21:15:09.298Z,18.93
2017-09-23T21:20:11.142Z,17.27
2017-09-23T21:25:12.910Z,19.13
2017-09-23T21:30:14.779Z,18.20
2017-09-23T21:35:16.703Z,21.97
2017-09-23T21:40:18.540Z,18.87
2017-09-23T21:45:22.071Z,16.40
2017-09-23T21:50:23.888Z,17.30
2017-09-23T21:55:26.738Z,17.60
2017-09-23T22:00:29.300Z,17.47
2017-09-23T22:05:31.128Z,18.67
2017-09-23T22:10:33.925Z,20.60
2017-09-23T22:15:35.684Z,19.73
2017-09-23T22:20:38.184Z,17.90
2017-09-23T22:25:40.078Z,18.60
2017-09-23T22:30:42.216Z,17.70
2017-09-23T22:35:45.055Z,18.13
2017-09-23T22:40:47.732Z,19.70
2017-09-23T22:45:49.496Z,20.90
2017-09-23T22:50:52.300Z,20.07
2017-09-23T22:55:54.792Z,19.97
2017-09-23T23:00:56.584Z,21.50
2017-09-23T23:05:58.448Z,21.80
2017-09-23T23:11:00.940Z,23.37
2017-09-23T23:16:05.485Z,22.57
2017-09-23T23:21:09.007Z,21.50
2017-09-23T23:26:10.873Z,20.70
2017-09-23T23:31:13.534Z,19.60
2017-09-23T23:36:15.469Z,20.13
2017-09-23T23:41:17.742Z,21.60
2017-09-23T23:46:20.233Z,20.87
2017-09-23T23:51:22.112Z,21.60
2017-09-23T23:56:24.871Z,20.50
